createdAt,value
2022-11-07T00:01:14.822Z,3.30
2022-11-07T00:04:21.399Z,3.20
2022-11-07T00:07:28.658Z,3.50
2022-11-07T00:10:35.849Z,3.60
2022-11-07T00:13:42.401Z,3.80
2022-11-07T00:16:49.307Z,3.50
2022-11-07T00:19:56.539Z,3.60
2022-11-07T00:23:03.081Z,4.00
2022-11-07T00:26:10.501Z,3.60
2022-11-07T00:29:17.320Z,3.80
2022-11-07T00:32:24.264Z,4.10
2022-11-07T00:35:31.344Z,4.00
2022-11-07T00:38:38.232Z,3.50
2022-11-07T00:41:45.105Z,3.80
2022-11-07T00:44:52.275Z,3.80
2022-11-07T00:47:59.167Z,3.50
2022-11-07T00:51:05.944Z,3.90
2022-11-07T00:54:13.103Z,3.90
2022-11-07T00:57:19.979Z,4.00
2022-11-07T01:00:26.895Z,3.90
2022-11-07T01:03:33.728Z,3.30
2022-11-07T01:06:40.989Z,3.40
2022-11-07T01:09:47.893Z,3.30
2022-11-07T01:12:54.771Z,4.00
2022-11-07T01:16:01.909Z,3.20
2022-11-07T01:19:08.402Z,3.40
2022-11-07T01:22:15.822Z,3.00
2022-11-07T01:25:23.182Z,2.90
2022-11-07T01:28:29.722Z,3.10
2022-11-07T01:31:36.827Z,2.70
2022-11-07T01:34:44.045Z,2.50
2022-11-07T01:37:50.613Z,2.60
2022-11-07T01:40:55.966Z,3.00
2022-11-07T01:44:03.007Z,2.40
2022-11-07T01:47:09.977Z,2.90
2022-11-07T01:50:17.391Z,2.90
2022-11-07T01:53:23.986Z,3.40
2022-11-07T01:56:31.135Z,2.90
2022-11-07T01:59:38.399Z,2.20
2022-11-07T02:02:45.033Z,2.40
2022-11-07T02:05:52.284Z,2.50
2022-11-07T02:08:59.361Z,2.40
2022-11-07T02:12:06.315Z,2.50
2022-11-07T02:15:13.231Z,2.10
2022-11-07T02:18:20.203Z,2.30
2022-11-07T02:21:27.647Z,2.60
2022-11-07T02:24:34.318Z,2.60
2022-11-07T02:27:41.682Z,2.20
2022-11-07T02:30:48.674Z,2.20
2022-11-07T02:33:55.285Z,2.30
2022-11-07T02:37:02.545Z,2.90
2022-11-07T02:40:09.501Z,2.10
2022-11-07T02:43:16.570Z,2.20
2022-11-07T02:46:24.200Z,2.00
2022-11-07T02:49:31.259Z,1.90
2022-11-07T02:52:38.349Z,2.30
2022-11-07T02:55:45.569Z,2.40
2022-11-07T02:58:52.556Z,2.80
2022-11-07T03:01:59.787Z,2.20
2022-11-07T03:05:07.271Z,2.10
2022-11-07T03:08:14.385Z,2.10
2022-11-07T03:11:21.484Z,2.00
2022-11-07T03:14:28.620Z,1.70
2022-11-07T03:17:35.775Z,1.90
2022-11-07T03:20:42.766Z,1.60
2022-11-07T03:23:49.800Z,1.60
2022-11-07T03:26:56.817Z,1.80
2022-11-07T03:30:04.167Z,1.40
2022-11-07T03:33:11.209Z,1.60
2022-11-07T03:36:18.256Z,1.80
2022-11-07T03:39:26.121Z,1.40
2022-11-07T03:42:33.482Z,1.20
2022-11-07T03:45:40.483Z,1.50
2022-11-07T03:48:47.440Z,1.90
2022-11-07T03:51:54.761Z,1.40
2022-11-07T03:55:01.810Z,1.40
2022-11-07T03:58:08.781Z,1.20
2022-11-07T04:01:16.238Z,1.40
2022-11-07T04:04:22.887Z,1.40
2022-11-07T04:07:30.175Z,1.30
2022-11-07T04:10:37.541Z,1.60
2022-11-07T04:13:44.155Z,1.40
2022-11-07T04:16:51.478Z,1.00
2022-11-07T04:19:58.574Z,1.30
2022-11-07T04:23:05.566Z,1.10
2022-11-07T04:26:12.937Z,1.40
2022-11-07T04:29:19.818Z,1.00
2022-11-07T04:32:26.801Z,1.10
2022-11-07T04:35:33.772Z,1.50
2022-11-07T04:38:41.162Z,1.30
2022-11-07T04:41:48.151Z,1.70
2022-11-07T04:44:55.141Z,1.20
2022-11-07T04:48:02.521Z,1.20
2022-11-07T04:51:09.213Z,1.20
2022-11-07T04:54:16.572Z,1.10
2022-11-07T04:57:23.935Z,1.30
2022-11-07T05:00:30.674Z,1.20
2022-11-07T05:03:41.835Z,1.10
2022-11-07T05:06:38.893Z,1.30
2022-11-07T05:09:45.677Z,1.20
2022-11-07T05:12:52.758Z,1.70
2022-11-07T05:15:59.799Z,1.10
2022-11-07T05:19:06.767Z,1.10
2022-11-07T05:22:14.248Z,1.10
2022-11-07T05:25:21.141Z,1.00
2022-11-07T05:28:36.834Z,1.00
2022-11-07T05:31:32.689Z,1.20
2022-11-07T05:34:39.614Z,1.10
2022-11-07T05:37:46.585Z,1.00
2022-11-07T05:40:53.564Z,0.90
2022-11-07T05:44:00.915Z,1.00
2022-11-07T05:47:07.883Z,1.10
2022-11-07T05:50:15.133Z,1.60
2022-11-07T05:53:22.669Z,1.00
2022-11-07T05:56:30.014Z,1.00
2022-11-07T05:59:37.286Z,1.20
2022-11-07T06:02:44.580Z,0.90
2022-11-07T06:05:51.418Z,1.00
2022-11-07T06:08:59.067Z,1.70
2022-11-07T06:12:06.249Z,1.10
2022-11-07T06:15:13.705Z,0.90
2022-11-07T06:18:21.323Z,1.40
2022-11-07T06:21:28.255Z,0.90
2022-11-07T06:24:35.404Z,1.00
2022-11-07T06:27:43.396Z,1.00
2022-11-07T06:30:50.694Z,1.10
2022-11-07T06:33:57.956Z,1.30
2022-11-07T06:37:05.899Z,1.00
2022-11-07T06:40:13.338Z,0.90
2022-11-07T06:43:20.970Z,0.90
2022-11-07T06:46:28.638Z,1.00
2022-11-07T06:49:35.600Z,1.10
2022-11-07T06:52:43.270Z,1.10
2022-11-07T06:55:50.790Z,0.90
2022-11-07T06:58:57.821Z,0.90
2022-11-07T07:02:05.843Z,1.00
2022-11-07T07:05:17.096Z,1.10
2022-11-07T07:08:16.831Z,1.10
2022-11-07T07:11:24.114Z,0.90
2022-11-07T07:14:31.002Z,1.60
2022-11-07T07:17:38.379Z,1.30
2022-11-07T07:20:45.796Z,1.10
2022-11-07T07:23:53.057Z,1.10
2022-11-07T07:27:00.477Z,0.80
2022-11-07T07:30:07.839Z,1.00
2022-11-07T07:33:15.787Z,1.10
2022-11-07T07:36:23.357Z,0.80
2022-11-07T07:39:30.561Z,1.40
2022-11-07T07:42:38.210Z,1.20
2022-11-07T07:45:45.625Z,1.00
2022-11-07T07:48:53.042Z,0.70
2022-11-07T07:52:00.711Z,0.90
2022-11-07T07:55:07.755Z,1.40
2022-11-07T07:58:15.443Z,1.00
2022-11-07T08:01:23.614Z,1.00
2022-11-07T08:04:30.525Z,1.40
2022-11-07T08:07:38.285Z,1.10
2022-11-07T08:10:46.206Z,1.70
2022-11-07T08:13:57.132Z,1.10
2022-11-07T08:16:56.791Z,1.40
2022-11-07T08:20:03.828Z,1.60
2022-11-07T08:23:16.460Z,1.40
2022-11-07T08:26:13.741Z,1.30
2022-11-07T08:29:20.651Z,1.40
2022-11-07T08:32:28.281Z,1.10
2022-11-07T08:35:41.165Z,0.80
2022-11-07T08:38:38.702Z,1.60
2022-11-07T08:41:46.498Z,1.10
2022-11-07T08:44:53.736Z,0.80
2022-11-07T08:48:01.225Z,1.20
2022-11-07T08:51:08.902Z,1.30
2022-11-07T08:54:16.021Z,1.10
2022-11-07T08:57:23.497Z,1.00
2022-11-07T09:00:30.875Z,0.90
2022-11-07T09:03:45.933Z,1.00
2022-11-07T09:06:42.570Z,0.90
2022-11-07T09:09:50.160Z,1.30
2022-11-07T09:12:57.982Z,1.00
2022-11-07T09:16:05.156Z,1.40
2022-11-07T09:19:12.269Z,1.10
2022-11-07T09:22:19.693Z,1.10
2022-11-07T09:25:26.757Z,1.20
2022-11-07T09:28:33.694Z,1.00
2022-11-07T09:31:41.109Z,1.40
2022-11-07T09:34:52.507Z,0.90
2022-11-07T09:37:52.370Z,1.20
2022-11-07T09:40:59.529Z,1.30
2022-11-07T09:44:06.524Z,1.20
2022-11-07T09:47:13.578Z,1.10
2022-11-07T09:50:21.209Z,1.20
2022-11-07T09:53:28.519Z,1.50
2022-11-07T09:56:35.518Z,1.10
2022-11-07T09:59:42.592Z,1.70
2022-11-07T10:02:49.493Z,1.10
2022-11-07T10:05:56.603Z,1.00
2022-11-07T10:09:03.557Z,1.60
2022-11-07T10:12:10.728Z,1.40
2022-11-07T10:15:17.556Z,1.10
2022-11-07T10:18:25.145Z,1.50
2022-11-07T10:21:39.716Z,1.10
2022-11-07T10:24:35.290Z,1.10
2022-11-07T10:27:42.718Z,0.80
2022-11-07T10:30:49.396Z,1.30
2022-11-07T10:33:56.873Z,0.90
2022-11-07T10:37:03.917Z,1.30
2022-11-07T10:40:11.967Z,0.90
2022-11-07T10:43:19.627Z,1.10
2022-11-07T10:46:27.073Z,1.60
2022-11-07T10:49:33.855Z,0.70
2022-11-07T10:52:41.031Z,1.30
2022-11-07T10:55:47.970Z,1.10
2022-11-07T10:58:55.088Z,1.50
2022-11-07T11:02:02.635Z,1.20
2022-11-07T11:05:09.338Z,0.70
2022-11-07T11:08:17.136Z,1.40
2022-11-07T11:11:24.912Z,1.20
2022-11-07T11:14:31.670Z,1.00
2022-11-07T11:17:39.153Z,1.10
2022-11-07T11:20:46.639Z,1.00
2022-11-07T11:23:53.366Z,1.30
2022-11-07T11:27:00.805Z,0.90
2022-11-07T11:30:07.965Z,1.70
2022-11-07T11:33:15.649Z,1.30
2022-11-07T11:36:23.237Z,1.20
2022-11-07T11:39:30.208Z,1.10
2022-11-07T11:42:37.155Z,1.20
2022-11-07T11:45:44.140Z,1.50
2022-11-07T11:48:51.600Z,1.00
2022-11-07T11:51:58.620Z,1.10
2022-11-07T11:55:05.408Z,0.90
2022-11-07T11:58:12.720Z,0.90
2022-11-07T12:01:19.686Z,0.70
2022-11-07T12:04:26.696Z,1.10
2022-11-07T12:07:33.995Z,1.10
2022-11-07T12:10:40.663Z,1.00
2022-11-07T12:13:48.008Z,0.80
2022-11-07T12:16:55.235Z,1.30
2022-11-07T12:20:01.959Z,1.00
2022-11-07T12:23:09.389Z,1.20
2022-11-07T12:26:16.779Z,0.90
2022-11-07T12:29:23.434Z,1.20
2022-11-07T12:32:30.872Z,1.40
2022-11-07T12:35:38.045Z,1.30
2022-11-07T12:38:45.134Z,0.80
2022-11-07T12:41:52.605Z,0.60
2022-11-07T12:44:59.542Z,0.70
2022-11-07T12:48:12.877Z,0.80
2022-11-07T12:51:09.889Z,1.30
2022-11-07T12:54:16.872Z,0.90
2022-11-07T12:57:23.919Z,0.80
2022-11-07T13:00:30.839Z,0.80
2022-11-07T13:03:37.991Z,0.70
2022-11-07T13:06:45.034Z,0.80
2022-11-07T13:09:52.272Z,1.10
2022-11-07T13:12:59.483Z,1.10
2022-11-07T13:16:21.628Z,1.10
2022-11-07T13:19:10.774Z,1.20
2022-11-07T13:22:18.270Z,1.40
2022-11-07T13:25:24.997Z,0.80
2022-11-07T13:28:32.185Z,0.60
2022-11-07T13:31:39.279Z,0.90
2022-11-07T13:34:46.141Z,0.90
2022-11-07T13:37:53.640Z,1.00
2022-11-07T13:41:00.282Z,1.20
2022-11-07T13:44:07.679Z,1.30
2022-11-07T13:47:15.028Z,0.70
2022-11-07T13:50:21.744Z,1.00
2022-11-07T13:53:29.028Z,0.90
2022-11-07T13:56:36.724Z,1.10
2022-11-07T13:59:43.456Z,0.70
2022-11-07T14:02:50.924Z,0.90
2022-11-07T14:05:58.428Z,1.10
2022-11-07T14:09:05.085Z,1.20
2022-11-07T14:12:12.385Z,0.80
2022-11-07T14:15:19.400Z,0.80
2022-11-07T14:18:26.301Z,1.00
2022-11-07T14:21:33.313Z,1.20
2022-11-07T14:24:40.322Z,0.80
2022-11-07T14:27:47.683Z,0.80
2022-11-07T14:30:54.856Z,1.10
2022-11-07T14:34:02.077Z,1.00
2022-11-07T14:37:09.368Z,0.90
2022-11-07T14:40:16.538Z,0.70
2022-11-07T14:43:24.108Z,1.10
2022-11-07T14:46:31.322Z,0.80
2022-11-07T14:49:38.484Z,1.00
2022-11-07T14:52:45.813Z,0.80
2022-11-07T14:55:52.942Z,1.10
2022-11-07T14:58:59.785Z,0.70
2022-11-07T15:02:07.319Z,0.70
2022-11-07T15:05:14.497Z,0.90
2022-11-07T15:08:21.395Z,1.40
2022-11-07T15:11:28.796Z,1.10
2022-11-07T15:14:35.866Z,0.90
2022-11-07T15:17:43.251Z,1.10
2022-11-07T15:20:50.746Z,1.00
2022-11-07T15:23:58.519Z,1.10
2022-11-07T15:27:05.923Z,1.20
2022-11-07T15:30:13.432Z,1.30
2022-11-07T15:33:21.171Z,1.00
2022-11-07T15:36:28.247Z,1.20
2022-11-07T15:39:35.880Z,2.00
2022-11-07T15:42:43.445Z,1.70
2022-11-07T15:45:50.902Z,1.60
2022-11-07T15:48:58.202Z,1.30
2022-11-07T15:52:05.976Z,1.20
2022-11-07T15:55:13.037Z,1.10
2022-11-07T15:58:20.754Z,1.20
2022-11-07T16:01:28.494Z,0.80
2022-11-07T16:04:39.614Z,1.70
2022-11-07T16:07:37.168Z,4.10
2022-11-07T16:10:44.735Z,1.90
2022-11-07T16:13:59.341Z,1.50
2022-11-07T16:16:56.792Z,1.50
2022-11-07T16:20:04.206Z,1.60
2022-11-07T16:23:11.424Z,1.30
2022-11-07T16:26:19.095Z,1.20
2022-11-07T16:29:25.923Z,2.40
2022-11-07T16:32:33.098Z,1.60
2022-11-07T16:35:40.576Z,1.90
2022-11-07T16:38:47.782Z,1.90
2022-11-07T16:41:56.461Z,1.10
2022-11-07T16:45:04.110Z,1.60
2022-11-07T16:48:11.474Z,1.20
2022-11-07T16:51:19.085Z,1.50
2022-11-07T16:54:26.120Z,1.10
2022-11-07T16:57:33.286Z,1.90
2022-11-07T17:00:40.124Z,1.20
2022-11-07T17:03:47.099Z,1.60
2022-11-07T17:06:54.353Z,3.00
2022-11-07T17:10:01.114Z,1.50
2022-11-07T17:13:08.737Z,1.80
2022-11-07T17:16:16.439Z,1.40
2022-11-07T17:19:23.150Z,1.60
2022-11-07T17:22:30.140Z,1.70
2022-11-07T17:25:37.151Z,1.00
2022-11-07T17:28:43.851Z,1.10
2022-11-07T17:31:51.181Z,1.00
2022-11-07T17:35:25.674Z,1.80
2022-11-07T17:38:02.110Z,1.00
2022-11-07T17:41:09.668Z,1.10
2022-11-07T17:44:16.825Z,1.20
2022-11-07T17:47:23.775Z,1.60
2022-11-07T17:50:30.577Z,1.20
2022-11-07T17:53:37.628Z,1.00
2022-11-07T17:56:44.672Z,2.00
2022-11-07T17:59:51.989Z,1.10
2022-11-07T18:02:59.448Z,1.10
2022-11-07T18:06:06.570Z,1.20
2022-11-07T18:09:13.723Z,1.50
2022-11-07T18:12:20.833Z,0.90
2022-11-07T18:15:28.092Z,1.30
2022-11-07T18:18:36.573Z,1.10
2022-11-07T18:21:43.884Z,1.20
2022-11-07T18:24:50.996Z,1.20
2022-11-07T18:27:58.615Z,1.00
2022-11-07T18:31:06.049Z,0.90
2022-11-07T18:34:12.849Z,1.50
2022-11-07T18:37:19.954Z,1.50
2022-11-07T18:40:27.569Z,1.10
2022-11-07T18:43:34.330Z,1.40
2022-11-07T18:46:41.640Z,1.20
2022-11-07T18:49:51.541Z,1.10
2022-11-07T18:52:51.671Z,1.40
2022-11-07T18:55:59.233Z,1.10
2022-11-07T18:59:06.364Z,1.20
2022-11-07T19:02:13.455Z,1.60
2022-11-07T19:05:20.959Z,1.40
2022-11-07T19:08:28.203Z,1.20
2022-11-07T19:11:35.363Z,1.50
2022-11-07T19:14:42.547Z,1.50
2022-11-07T19:17:49.998Z,1.60
2022-11-07T19:20:57.217Z,2.00
2022-11-07T19:24:04.399Z,1.60
2022-11-07T19:27:11.670Z,1.00
2022-11-07T19:30:18.926Z,1.50
2022-11-07T19:33:26.022Z,1.90
2022-11-07T19:36:33.454Z,1.50
2022-11-07T19:39:40.414Z,1.50
2022-11-07T19:42:47.163Z,1.30
2022-11-07T19:45:54.464Z,1.30
2022-11-07T19:49:01.121Z,1.40
2022-11-07T19:52:08.626Z,1.70
2022-11-07T19:55:16.185Z,1.20
2022-11-07T19:58:23.029Z,1.30
2022-11-07T20:01:30.910Z,1.10
2022-11-07T20:04:38.608Z,1.10
2022-11-07T20:07:46.250Z,1.20
2022-11-07T20:10:54.372Z,1.30
2022-11-07T20:14:03.728Z,1.20
2022-11-07T20:17:11.181Z,1.30
2022-11-07T20:20:18.200Z,1.30
2022-11-07T20:23:25.228Z,1.20
2022-11-07T20:26:32.525Z,1.10
2022-11-07T20:29:39.557Z,1.40
2022-11-07T20:32:46.650Z,0.90
2022-11-07T20:35:53.999Z,1.10
2022-11-07T20:39:01.247Z,1.60
2022-11-07T20:42:08.226Z,0.90
2022-11-07T20:45:15.747Z,1.10
2022-11-07T20:48:22.500Z,1.00
2022-11-07T20:51:29.982Z,1.50
2022-11-07T20:54:37.512Z,1.30
2022-11-07T20:57:44.285Z,1.20
2022-11-07T21:00:51.606Z,1.30
2022-11-07T21:03:58.886Z,1.00
2022-11-07T21:07:05.593Z,1.20
2022-11-07T21:10:13.239Z,1.00
2022-11-07T21:13:20.430Z,1.10
2022-11-07T21:16:27.576Z,1.20
2022-11-07T21:19:34.648Z,1.10
2022-11-07T21:22:41.556Z,1.30
2022-11-07T21:25:48.560Z,1.30
2022-11-07T21:28:55.872Z,1.30
2022-11-07T21:32:02.913Z,1.00
2022-11-07T21:35:12.172Z,1.40
2022-11-07T21:38:20.109Z,1.10
2022-11-07T21:41:27.523Z,1.20
2022-11-07T21:44:35.453Z,1.50
2022-11-07T21:47:45.904Z,1.00
2022-11-07T21:50:53.155Z,1.20
2022-11-07T21:54:00.494Z,1.20
2022-11-07T21:57:07.608Z,1.70
2022-11-07T22:00:14.847Z,1.20
2022-11-07T22:03:43.678Z,1.20
2022-11-07T22:06:26.641Z,1.30
2022-11-07T22:09:34.039Z,1.10
2022-11-07T22:12:41.381Z,1.50
2022-11-07T22:15:48.914Z,1.40
2022-11-07T22:18:56.331Z,1.50
2022-11-07T22:22:03.713Z,1.10
2022-11-07T22:25:11.531Z,1.50
2022-11-07T22:28:18.843Z,2.00
2022-11-07T22:31:26.206Z,1.60
2022-11-07T22:34:34.054Z,1.40
2022-11-07T22:37:41.090Z,1.60
2022-11-07T22:40:48.826Z,1.30
2022-11-07T22:43:56.466Z,1.30
2022-11-07T22:47:03.555Z,1.20
2022-11-07T22:50:11.230Z,1.30
2022-11-07T22:53:13.169Z,1.60
2022-11-07T22:56:20.101Z,2.40
2022-11-07T22:59:27.704Z,1.70
2022-11-07T23:02:34.969Z,1.20
2022-11-07T23:05:42.263Z,1.30
2022-11-07T23:08:50.053Z,1.40
2022-11-07T23:11:57.083Z,1.60
2022-11-07T23:15:04.906Z,2.00
2022-11-07T23:18:12.463Z,1.20
2022-11-07T23:21:19.396Z,1.40
2022-11-07T23:24:27.061Z,2.00
2022-11-07T23:27:34.396Z,1.20
2022-11-07T23:30:41.708Z,1.70
2022-11-07T23:33:49.380Z,1.40
2022-11-07T23:36:56.708Z,1.50
2022-11-07T23:40:03.892Z,1.50
2022-11-07T23:43:11.623Z,1.20
2022-11-07T23:46:18.904Z,1.40
2022-11-07T23:49:26.363Z,1.40
2022-11-07T23:52:34.146Z,1.10
2022-11-07T23:55:41.481Z,1.50
2022-11-07T23:58:48.825Z,1.70
